Sbi Athena — V7IG7 — position and weather

sailwx.info

Track history (hours):
 
Tides and Currents Weather Stations Pressure Air Temp Water Temp Dewpoint Dewpoint Depression Visibility Wind Speed Wind Dir Waves Ship Positions

Sbi Athena

Last reported at 2018-Feb-18 21:07 UTC. Time now 2018-Feb-21 11:29 UTC.
Position N 39°31' E 015°05'.

Length 200 m; draft 8.2 m.

Type: Cargo ship. MMSI: 538005937.

Date/timePositionNaut miles runAvg speedWind from/ knotsBaromVisibWave heightAir tempDewpointWater temp
2018-Feb-18 21:07N 39°31' E 015°05'312.2
2018-Feb-18 20:54N 39°29' E 015°06'3112.1
2018-Feb-18 18:19N 38°60' E 015°22'412.5
2018-Feb-18 18:00N 38°56' E 015°23'612.5
2018-Feb-18 17:30N 38°50' E 015°26'612.3
2018-Feb-18 17:00N 38°44' E 015°29'612.2
2018-Feb-18 16:30N 38°39' E 015°32'611.7
2018-Feb-18 16:00N 38°33' E 015°34'611.6
2018-Feb-18 15:30N 38°28' E 015°37'611.8
2018-Feb-18 15:00N 38°22' E 015°40'611.6
2018-Feb-18 14:28N 38°16' E 015°41'511.7
2018-Feb-18 14:00N 38°12' E 015°37'713.8
2018-Feb-18 13:30N 38°05' E 015°37'714.3
2018-Feb-18 12:59N 37°58' E 015°38'713.9
2018-Feb-18 12:29N 37°53' E 015°44'813.9
2018-Feb-18 11:56N 37°50' E 015°53'612.8
2018-Feb-18 11:30N 37°49' E 016°00'16111.5
2018-Feb-17 21:35N 39°41' E 018°27'312.1
2018-Feb-17 21:21N 39°43' E 018°30'411.7
2018-Feb-17 21:00N 39°46' E 018°34'611.6
2018-Feb-17 20:30N 39°50' E 018°39'611.2
2018-Feb-17 20:00N 39°56' E 018°40'612.1
2018-Feb-17 19:29N 40°02' E 018°40'  
2018-Feb-09 22:22N 33°20' E 028°47'  
Track history (hours):
 
Tides and Currents Weather Stations Pressure Air Temp Water Temp Dewpoint Dewpoint Depression Visibility Wind Speed Wind Dir Waves Ship Positions

Sbi Athena

Last reported at 2018-Feb-18 21:07 UTC. Time now 2018-Feb-21 11:29 UTC.
Position N 39°31' E 015°05'.

Length 200 m; draft 8.2 m.

Type: Cargo ship. MMSI: 538005937.

Date/timePositionNaut miles runAvg speedWind from/ knotsBaromVisibWave heightAir tempDewpointWater temp
2018-Feb-18 21:07N 39°31' E 015°05'312.2
2018-Feb-18 20:54N 39°29' E 015°06'3112.1
2018-Feb-18 18:19N 38°60' E 015°22'412.5
2018-Feb-18 18:00N 38°56' E 015°23'612.5
2018-Feb-18 17:30N 38°50' E 015°26'612.3
2018-Feb-18 17:00N 38°44' E 015°29'612.2
2018-Feb-18 16:30N 38°39' E 015°32'611.7
2018-Feb-18 16:00N 38°33' E 015°34'611.6
2018-Feb-18 15:30N 38°28' E 015°37'611.8
2018-Feb-18 15:00N 38°22' E 015°40'611.6
2018-Feb-18 14:28N 38°16' E 015°41'511.7
2018-Feb-18 14:00N 38°12' E 015°37'713.8
2018-Feb-18 13:30N 38°05' E 015°37'714.3
2018-Feb-18 12:59N 37°58' E 015°38'713.9
2018-Feb-18 12:29N 37°53' E 015°44'813.9
2018-Feb-18 11:56N 37°50' E 015°53'612.8
2018-Feb-18 11:30N 37°49' E 016°00'16111.5
2018-Feb-17 21:35N 39°41' E 018°27'312.1
2018-Feb-17 21:21N 39°43' E 018°30'411.7
2018-Feb-17 21:00N 39°46' E 018°34'611.6
2018-Feb-17 20:30N 39°50' E 018°39'611.2
2018-Feb-17 20:00N 39°56' E 018°40'612.1
2018-Feb-17 19:29N 40°02' E 018°40'  
2018-Feb-09 22:22N 33°20' E 028°47'  

Dump ship's entire track history